createdAt,value
2022-09-24T00:04:56.145Z,91.70
2022-09-24T00:09:53.029Z,91.80
2022-09-24T00:12:22.571Z,91.80
2022-09-24T00:14:50.822Z,91.80
2022-09-24T00:17:19.016Z,91.90
2022-09-24T00:19:47.198Z,92.00
2022-09-24T00:22:15.440Z,92.00
2022-09-24T00:25:01.250Z,92.10
2022-09-24T00:27:30.880Z,92.10
2022-09-24T00:32:27.597Z,92.20
2022-09-24T00:34:55.846Z,92.40
2022-09-24T00:37:24.126Z,92.50
2022-09-24T00:39:52.293Z,92.50
2022-09-24T00:42:20.720Z,92.60
2022-09-24T00:44:56.168Z,92.70
2022-09-24T00:47:37.005Z,92.70
2022-09-24T00:50:20.320Z,92.80
2022-09-24T00:52:56.612Z,92.90
2022-09-24T00:55:26.076Z,93.00
2022-09-24T00:57:58.207Z,93.10
2022-09-24T01:00:27.899Z,93.20
2022-09-24T01:03:02.521Z,93.20
2022-09-24T01:05:31.081Z,93.30
2022-09-24T01:10:51.782Z,93.40
2022-09-24T01:13:55.582Z,93.40
2022-09-24T01:16:37.425Z,93.50
2022-09-24T01:19:20.159Z,93.50
2022-09-24T01:21:55.267Z,93.70
2022-09-24T01:24:59.503Z,93.70
2022-09-24T01:27:52.297Z,93.80
2022-09-24T01:30:22.192Z,93.80
2022-09-24T01:32:55.737Z,93.90
2022-09-24T01:35:30.433Z,94.00
2022-09-24T01:38:03.156Z,94.10
2022-09-24T01:40:32.352Z,94.20
2022-09-24T01:43:03.229Z,94.20
2022-09-24T01:45:34.253Z,94.30
2022-09-24T01:48:03.241Z,94.40
2022-09-24T01:50:39.973Z,94.50
2022-09-24T01:53:17.003Z,94.50
2022-09-24T01:55:50.620Z,94.60
2022-09-24T01:58:24.509Z,94.60
2022-09-24T02:01:00.661Z,94.60
2022-09-24T02:03:34.505Z,94.80
2022-09-24T02:06:09.757Z,94.80
2022-09-24T02:08:42.647Z,94.80
2022-09-24T02:11:15.948Z,94.90
2022-09-24T02:13:48.640Z,94.90
2022-09-24T02:16:23.422Z,95.00
2022-09-24T02:18:56.497Z,95.00
2022-09-24T02:21:26.829Z,95.10
2022-09-24T02:24:00.832Z,95.10
2022-09-24T02:26:29.712Z,95.20
2022-09-24T02:28:59.138Z,95.30
2022-09-24T02:31:32.847Z,95.40
2022-09-24T02:34:25.960Z,95.40
2022-09-24T02:36:59.189Z,95.40
2022-09-24T02:39:28.223Z,95.40
2022-09-24T02:46:55.708Z,95.60
2022-09-24T02:49:23.988Z,95.60
2022-09-24T02:51:52.174Z,95.60
2022-09-24T02:59:19.559Z,95.60
2022-09-24T03:04:18.452Z,95.80
2022-09-24T03:06:46.616Z,95.90
2022-09-24T03:09:15.081Z,95.90
2022-09-24T03:11:43.736Z,95.90
2022-09-24T03:16:40.633Z,96.10
2022-09-24T03:19:09.123Z,96.10
2022-09-24T03:21:38.683Z,96.20
2022-09-24T03:24:07.015Z,96.20
2022-09-24T03:31:31.478Z,96.40
2022-09-24T03:36:28.502Z,96.40
2022-09-24T03:38:58.523Z,96.40
2022-09-24T03:41:28.336Z,96.40
2022-09-24T03:43:56.802Z,96.40
2022-09-24T03:46:29.975Z,96.30
2022-09-24T03:49:00.580Z,96.40
2022-09-24T03:53:58.821Z,96.40
2022-09-24T03:58:56.116Z,96.40
2022-09-24T04:01:24.364Z,96.50
2022-09-24T04:11:25.817Z,96.60
2022-09-24T04:16:22.819Z,96.70
2022-09-24T04:23:48.394Z,96.70
2022-09-24T04:26:17.127Z,96.80
2022-09-24T04:28:46.680Z,96.90
2022-09-24T04:31:14.980Z,96.90
2022-09-24T04:33:43.260Z,97.00
2022-09-24T04:38:40.016Z,97.00
2022-09-24T04:41:09.437Z,97.00
2022-09-24T04:43:37.827Z,97.10
2022-09-24T04:46:08.551Z,97.10
2022-09-24T04:51:07.293Z,97.00
2022-09-24T04:53:37.186Z,97.00
2022-09-24T04:56:06.316Z,97.00
2022-09-24T04:58:34.521Z,97.10
2022-09-24T05:01:04.936Z,97.00
2022-09-24T05:03:34.973Z,97.10
2022-09-24T05:11:02.359Z,97.20
2022-09-24T05:13:30.639Z,97.20
2022-09-24T05:16:00.952Z,97.30
2022-09-24T05:20:59.306Z,97.30
2022-09-24T05:26:15.012Z,97.30
2022-09-24T05:33:40.729Z,97.40
2022-09-24T05:36:10.328Z,97.40
2022-09-24T05:38:41.564Z,97.50
2022-09-24T05:41:10.720Z,97.50
2022-09-24T05:43:38.943Z,97.50
2022-09-24T05:46:08.108Z,97.50
2022-09-24T05:51:05.603Z,97.50
2022-09-24T05:53:35.165Z,97.50
2022-09-24T05:56:03.512Z,97.60
2022-09-24T05:58:32.010Z,97.50
2022-09-24T06:01:01.330Z,97.50
2022-09-24T06:03:31.762Z,97.60
2022-09-24T06:06:02.028Z,97.60
2022-09-24T06:08:32.504Z,97.50
2022-09-24T06:11:02.756Z,97.50
2022-09-24T06:13:31.512Z,97.50
2022-09-24T06:16:02.747Z,97.60
2022-09-24T06:18:31.391Z,97.60
2022-09-24T06:21:03.796Z,97.70
2022-09-24T06:26:02.206Z,97.80
2022-09-24T06:31:01.737Z,97.80
2022-09-24T06:33:30.551Z,97.80
2022-09-24T06:36:02.427Z,97.80
2022-09-24T06:38:31.442Z,97.70
2022-09-24T06:41:03.457Z,97.70
2022-09-24T06:43:33.382Z,97.60
2022-09-24T06:46:03.270Z,97.70
2022-09-24T06:48:32.133Z,97.70
2022-09-24T06:51:00.483Z,97.60
2022-09-24T06:53:28.753Z,97.60
2022-09-24T06:55:59.778Z,97.70
2022-09-24T06:58:29.909Z,97.70
2022-09-24T07:01:01.492Z,97.70
2022-09-24T07:03:32.114Z,97.70
2022-09-24T07:06:03.185Z,97.80
2022-09-24T07:08:31.829Z,97.70
2022-09-24T07:11:00.718Z,97.60
2022-09-24T07:13:30.570Z,97.60
2022-09-24T07:15:58.806Z,97.50
2022-09-24T07:18:27.032Z,97.50
2022-09-24T07:20:56.402Z,97.60
2022-09-24T07:23:26.153Z,97.60
2022-09-24T07:25:57.621Z,97.70
2022-09-24T07:28:26.701Z,97.60
2022-09-24T07:31:00.732Z,97.40
2022-09-24T07:33:29.628Z,97.30
2022-09-24T07:38:26.928Z,97.00
2022-09-24T07:40:59.407Z,97.00
2022-09-24T07:43:29.084Z,97.00
2022-09-24T07:45:58.022Z,96.80
2022-09-24T07:48:27.730Z,96.60
2022-09-24T07:50:55.952Z,96.40
2022-09-24T07:55:52.819Z,96.20
2022-09-24T08:00:50.077Z,96.30
2022-09-24T08:03:18.295Z,96.30
2022-09-24T08:05:48.168Z,96.40
2022-09-24T08:08:16.320Z,96.10
2022-09-24T08:10:45.023Z,95.40
2022-09-24T08:13:13.603Z,95.10
2022-09-24T08:15:41.886Z,94.60
2022-09-24T08:20:40.251Z,93.60
2022-09-24T08:23:11.179Z,93.00
2022-09-24T08:25:39.556Z,92.40
2022-09-24T08:28:10.762Z,92.30
2022-09-24T08:30:40.356Z,92.30
2022-09-24T08:33:08.876Z,92.00
2022-09-24T08:35:38.307Z,91.90
2022-09-24T08:38:06.677Z,91.90
2022-09-24T08:40:40.593Z,91.20
2022-09-24T08:43:26.929Z,90.90
2022-09-24T08:46:16.133Z,90.80
2022-09-24T08:48:51.430Z,90.90
2022-09-24T08:51:23.034Z,91.00
2022-09-24T08:53:59.242Z,91.10
2022-09-24T08:56:33.212Z,91.20
2022-09-24T08:59:05.916Z,91.30
2022-09-24T09:01:44.594Z,91.30
2022-09-24T09:04:26.837Z,91.30
2022-09-24T09:07:09.493Z,91.30
2022-09-24T09:09:47.529Z,91.30
2022-09-24T09:12:23.948Z,91.40
2022-09-24T09:14:58.461Z,91.20
2022-09-24T09:17:42.372Z,91.10
2022-09-24T09:20:18.471Z,90.90
2022-09-24T09:22:49.724Z,90.90
2022-09-24T09:25:25.797Z,90.80
2022-09-24T09:28:02.842Z,90.70
2022-09-24T09:30:43.576Z,90.10
2022-09-24T09:33:33.168Z,88.10
2022-09-24T09:36:28.423Z,85.40
2022-09-24T09:39:09.528Z,82.80
2022-09-24T09:41:47.904Z,81.30
2022-09-24T09:44:23.156Z,80.00
2022-09-24T09:46:58.346Z,78.60
2022-09-24T09:49:32.994Z,78.40
2022-09-24T09:52:05.390Z,76.90
2022-09-24T09:54:43.433Z,74.70
2022-09-24T09:57:18.051Z,74.50
2022-09-24T09:59:51.081Z,74.70
2022-09-24T10:02:27.065Z,73.80
2022-09-24T10:04:58.848Z,73.90
2022-09-24T10:07:27.040Z,75.30
2022-09-24T10:10:05.202Z,75.50
2022-09-24T10:12:33.511Z,76.80
2022-09-24T10:15:06.446Z,76.50
2022-09-24T10:17:38.953Z,76.60
2022-09-24T10:20:15.570Z,76.40
2022-09-24T10:22:51.840Z,76.20
2022-09-24T10:25:26.204Z,75.80
2022-09-24T10:28:17.008Z,75.20
2022-09-24T10:30:59.066Z,75.50
2022-09-24T10:33:28.640Z,75.80
2022-09-24T10:36:07.893Z,75.90
2022-09-24T10:38:36.267Z,75.40
2022-09-24T10:41:25.957Z,75.10
2022-09-24T10:43:56.233Z,75.10
2022-09-24T10:46:47.854Z,74.60
2022-09-24T10:49:31.995Z,74.00
2022-09-24T10:52:13.325Z,73.20
2022-09-24T10:54:57.109Z,72.10
2022-09-24T10:57:32.677Z,71.20
2022-09-24T11:00:12.454Z,70.70
2022-09-24T11:03:25.133Z,69.60
2022-09-24T11:05:57.638Z,69.20
2022-09-24T11:08:50.216Z,69.00
2022-09-24T11:11:32.547Z,68.80
2022-09-24T11:14:17.665Z,67.90
2022-09-24T11:17:08.332Z,68.10
2022-09-24T11:20:05.323Z,68.40
2022-09-24T11:22:44.612Z,67.50
2022-09-24T11:25:32.008Z,67.10
2022-09-24T11:28:23.001Z,66.50
2022-09-24T11:31:06.246Z,65.70
2022-09-24T11:33:58.673Z,65.20
2022-09-24T11:36:46.901Z,65.80
2022-09-24T11:39:44.124Z,66.30
2022-09-24T11:42:25.484Z,66.80
2022-09-24T11:45:47.618Z,67.10
2022-09-24T11:48:46.253Z,67.40
2022-09-24T11:51:29.339Z,67.30
2022-09-24T11:54:07.434Z,66.10
2022-09-24T11:56:43.095Z,64.70
2022-09-24T11:59:20.833Z,64.10
2022-09-24T12:01:55.278Z,64.10
2022-09-24T12:04:29.166Z,64.40
2022-09-24T12:07:06.627Z,64.90
2022-09-24T12:09:42.357Z,65.40
2022-09-24T12:12:15.372Z,65.90
2022-09-24T12:14:51.104Z,66.00
2022-09-24T12:17:25.312Z,65.60
2022-09-24T12:20:00.584Z,65.50
2022-09-24T12:22:31.952Z,65.10
2022-09-24T12:25:02.874Z,65.20
2022-09-24T12:27:36.714Z,65.10
2022-09-24T12:30:40.139Z,64.80
2022-09-24T12:33:15.929Z,64.80
2022-09-24T12:36:04.487Z,65.20
2022-09-24T12:38:38.152Z,65.40
2022-09-24T12:41:32.482Z,65.30
2022-09-24T12:44:12.842Z,65.30
2022-09-24T12:46:43.865Z,65.30
2022-09-24T12:49:26.883Z,65.30
2022-09-24T12:51:57.266Z,65.30
2022-09-24T12:54:30.358Z,65.30
2022-09-24T12:57:14.771Z,65.50
2022-09-24T12:59:52.612Z,65.50
2022-09-24T13:02:23.641Z,65.40
2022-09-24T13:05:27.199Z,64.60
2022-09-24T13:08:01.693Z,64.40
2022-09-24T13:10:32.771Z,64.60
2022-09-24T13:13:02.975Z,64.80
2022-09-24T13:15:37.511Z,65.20
2022-09-24T13:18:24.185Z,65.70
2022-09-24T13:21:03.206Z,66.30
2022-09-24T13:23:44.572Z,66.70
2022-09-24T13:26:28.137Z,67.20
2022-09-24T13:29:00.752Z,67.40
2022-09-24T13:31:44.767Z,67.60
2022-09-24T13:34:23.668Z,67.70
2022-09-24T13:36:58.970Z,67.80
2022-09-24T13:39:36.682Z,67.70
2022-09-24T13:42:16.140Z,67.20
2022-09-24T13:44:48.713Z,66.90
2022-09-24T13:47:28.467Z,66.90
2022-09-24T13:50:08.273Z,66.60
2022-09-24T13:52:42.804Z,66.50
2022-09-24T13:55:20.172Z,66.30
2022-09-24T13:57:50.172Z,66.20
2022-09-24T14:00:24.375Z,66.20
2022-09-24T14:03:02.144Z,66.50
2022-09-24T14:05:35.977Z,66.60
2022-09-24T14:08:08.658Z,67.00
2022-09-24T14:10:37.503Z,67.20
2022-09-24T14:13:22.367Z,67.40
2022-09-24T14:15:58.984Z,67.80
2022-09-24T14:18:29.646Z,67.80
2022-09-24T14:21:06.166Z,67.90
2022-09-24T14:23:40.023Z,68.20
2022-09-24T14:26:13.696Z,68.50
2022-09-24T14:28:42.023Z,68.60
2022-09-24T14:31:11.719Z,68.80
2022-09-24T14:33:41.403Z,68.80
2022-09-24T14:36:13.732Z,69.00
2022-09-24T14:38:57.593Z,69.30
2022-09-24T14:41:30.251Z,69.60
2022-09-24T14:44:03.979Z,69.90
2022-09-24T14:46:38.893Z,69.90
2022-09-24T14:49:19.366Z,70.10
2022-09-24T14:51:56.869Z,70.20
2022-09-24T14:54:33.510Z,70.20
2022-09-24T14:57:13.444Z,70.20
2022-09-24T14:59:42.779Z,70.20
2022-09-24T15:02:20.954Z,70.30
2022-09-24T15:04:52.530Z,70.50
2022-09-24T15:07:25.072Z,70.80
2022-09-24T15:09:56.531Z,70.90
2022-09-24T15:12:31.052Z,71.10
2022-09-24T15:15:02.603Z,71.30
2022-09-24T15:17:34.284Z,71.30
2022-09-24T15:20:05.350Z,71.30
2022-09-24T15:22:33.642Z,71.40
2022-09-24T15:25:02.607Z,71.40
2022-09-24T15:27:33.531Z,71.50
2022-09-24T15:30:07.068Z,71.60
2022-09-24T15:32:36.743Z,71.80
2022-09-24T15:37:40.130Z,72.30
2022-09-24T15:40:20.454Z,72.50
2022-09-24T15:42:48.791Z,72.70
2022-09-24T15:45:19.693Z,72.80
2022-09-24T15:47:49.509Z,72.90
2022-09-24T15:52:53.402Z,73.10
2022-09-24T15:55:23.904Z,73.60
2022-09-24T16:00:23.531Z,73.80
2022-09-24T16:02:57.103Z,73.80
2022-09-24T16:05:26.435Z,73.90
2022-09-24T16:10:23.226Z,74.20
2022-09-24T16:12:51.443Z,74.60
2022-09-24T16:15:20.533Z,75.10
2022-09-24T16:17:50.803Z,75.50
2022-09-24T16:20:20.479Z,75.90
2022-09-24T16:22:48.697Z,76.20
2022-09-24T16:25:17.339Z,76.50
2022-09-24T16:27:45.644Z,76.90
2022-09-24T16:32:42.422Z,77.80
2022-09-24T16:35:13.150Z,78.30
2022-09-24T16:37:42.833Z,78.70
2022-09-24T16:40:12.380Z,79.10
2022-09-24T16:45:12.603Z,80.10
2022-09-24T16:50:10.914Z,81.10
2022-09-24T16:55:10.963Z,82.00
2022-09-24T16:57:39.731Z,82.60
2022-09-24T17:00:10.897Z,82.90
2022-09-24T17:02:40.117Z,83.40
2022-09-24T17:05:09.414Z,83.80
2022-09-24T17:07:37.896Z,84.20
2022-09-24T17:10:16.069Z,84.80
2022-09-24T17:12:48.180Z,85.20
2022-09-24T17:15:20.467Z,85.60
2022-09-24T17:17:50.666Z,86.50
2022-09-24T17:20:20.230Z,87.20
2022-09-24T17:22:49.787Z,87.80
2022-09-24T17:25:19.565Z,88.40
2022-09-24T17:27:47.738Z,89.10
2022-09-24T17:30:16.474Z,89.70
2022-09-24T17:37:43.855Z,90.60
2022-09-24T17:40:12.696Z,90.80
2022-09-24T17:42:45.749Z,91.10
2022-09-24T17:55:23.365Z,92.00
2022-09-24T17:57:52.884Z,92.10
2022-09-24T18:00:21.113Z,92.20
2022-09-24T18:02:49.491Z,92.30
2022-09-24T18:05:17.895Z,92.30
2022-09-24T18:07:46.069Z,92.30
2022-09-24T18:10:17.237Z,92.60
2022-09-24T18:15:15.448Z,93.90
2022-09-24T18:22:40.985Z,95.30
2022-09-24T18:25:11.240Z,95.60
2022-09-24T18:27:39.480Z,95.80
2022-09-24T18:30:11.572Z,96.00
2022-09-24T18:32:41.155Z,96.20
2022-09-24T18:35:10.741Z,96.40
2022-09-24T18:37:39.317Z,96.60
2022-09-24T18:40:10.202Z,96.70
2022-09-24T18:45:08.557Z,97.00
2022-09-24T18:47:38.104Z,97.10
2022-09-24T18:50:09.690Z,97.20
2022-09-24T18:55:08.334Z,97.40
2022-09-24T19:00:28.236Z,97.60
2022-09-24T19:02:57.123Z,97.80
2022-09-24T19:05:26.946Z,97.90
2022-09-24T19:07:55.145Z,98.00
2022-09-24T19:10:23.333Z,98.00
2022-09-24T19:12:54.026Z,98.10
2022-09-24T19:15:22.204Z,98.20
2022-09-24T19:17:52.969Z,98.30
2022-09-24T19:20:21.488Z,98.30
2022-09-24T19:22:59.802Z,98.30
2022-09-24T19:25:32.800Z,98.40
2022-09-24T19:28:01.493Z,98.40
2022-09-24T19:32:59.740Z,98.40
2022-09-24T19:37:57.878Z,98.40
2022-09-24T19:42:54.938Z,98.50
2022-09-24T19:47:51.913Z,98.60
2022-09-24T19:50:20.116Z,98.70
2022-09-24T19:52:48.708Z,98.70
2022-09-24T19:55:20.440Z,98.80
2022-09-24T19:57:50.063Z,98.80
2022-09-24T20:00:18.401Z,98.90
2022-09-24T20:05:15.365Z,98.90
2022-09-24T20:10:14.549Z,98.80
2022-09-24T20:12:46.600Z,98.70
2022-09-24T20:15:14.901Z,98.90
2022-09-24T20:17:43.085Z,99.40
2022-09-24T20:20:11.552Z,99.80
2022-09-24T20:22:39.731Z,99.90
2022-09-24T20:25:08.994Z,99.90
2022-09-24T20:30:23.699Z,99.90
2022-09-24T20:32:52.413Z,99.90
2022-09-24T20:35:21.266Z,99.90
2022-09-24T20:37:49.824Z,99.90
2022-09-24T20:40:18.308Z,99.90
2022-09-24T20:47:49.896Z,99.90
2022-09-24T20:50:18.831Z,99.90
2022-09-24T20:52:47.342Z,99.90
2022-09-24T20:55:15.834Z,99.90
2022-09-24T20:57:44.617Z,99.90
2022-09-24T21:00:15.136Z,99.90
2022-09-24T21:02:44.963Z,99.90
2022-09-24T21:05:13.567Z,99.90
2022-09-24T21:07:42.741Z,99.90
2022-09-24T21:10:13.487Z,99.90
2022-09-24T21:12:41.831Z,99.90
2022-09-24T21:15:13.694Z,99.90
2022-09-24T21:17:54.767Z,99.90
2022-09-24T21:20:33.028Z,99.90
2022-09-24T21:23:01.291Z,99.90
2022-09-24T21:25:52.815Z,99.90
2022-09-24T21:31:03.256Z,99.90
2022-09-24T21:33:32.083Z,99.90
2022-09-24T21:36:02.855Z,99.90
2022-09-24T21:38:31.473Z,99.90
2022-09-24T21:41:01.389Z,99.90
2022-09-24T21:46:05.792Z,99.90
2022-09-24T21:48:35.247Z,99.90
2022-09-24T21:51:07.576Z,99.90
2022-09-24T21:53:36.735Z,99.90
2022-09-24T21:56:06.523Z,99.90
2022-09-24T21:58:34.841Z,99.90
2022-09-24T22:01:05.295Z,99.90
2022-09-24T22:06:05.527Z,99.90
2022-09-24T22:08:33.828Z,99.90
2022-09-24T22:11:04.533Z,99.90
2022-09-24T22:13:34.640Z,99.90
2022-09-24T22:16:03.604Z,99.90
2022-09-24T22:21:10.395Z,99.90
2022-09-24T22:26:09.078Z,99.90
2022-09-24T22:28:38.484Z,99.90
2022-09-24T22:31:09.980Z,99.90
2022-09-24T22:33:56.433Z,99.90
2022-09-24T22:36:27.837Z,99.90
2022-09-24T22:38:57.337Z,99.90
2022-09-24T22:41:26.318Z,99.90
2022-09-24T22:43:54.500Z,99.90
2022-09-24T22:46:27.019Z,99.90
2022-09-24T22:48:56.217Z,99.90
2022-09-24T22:51:28.248Z,99.90
2022-09-24T22:56:27.416Z,99.90
2022-09-24T22:58:58.980Z,99.90
2022-09-24T23:01:31.219Z,99.90
2022-09-24T23:04:01.268Z,99.90
2022-09-24T23:06:32.893Z,99.90
2022-09-24T23:09:01.834Z,99.90
2022-09-24T23:11:32.535Z,99.90
2022-09-24T23:14:03.473Z,99.90
2022-09-24T23:16:34.207Z,99.90
2022-09-24T23:19:06.125Z,99.90
2022-09-24T23:21:36.786Z,99.90
2022-09-24T23:24:08.048Z,99.90
2022-09-24T23:26:36.732Z,99.90
2022-09-24T23:29:06.747Z,99.90
2022-09-24T23:31:37.007Z,99.90
2022-09-24T23:34:07.748Z,99.90
2022-09-24T23:36:37.786Z,99.90
2022-09-24T23:39:06.683Z,99.90
2022-09-24T23:44:04.133Z,99.90
2022-09-24T23:46:33.684Z,99.90
2022-09-24T23:49:02.130Z,99.90
2022-09-24T23:51:30.344Z,99.90
2022-09-24T23:53:59.941Z,99.90
2022-09-24T23:56:28.932Z,99.90
2022-09-24T23:58:57.690Z,99.90
